CYOW

Ottawa / Macdonald-Cartier International Airport

Ottawa, , Canada
METAR CYOW 190100Z 14007KT 15SM OVC056 M03/M07 A3018 RMK SC8 SLP229
Observed Flight Rules
Nov-19 @ 01:00 UTC (17 minutes ago) Visual Flight Rules
Wind Visibility Clouds
140° at 7 knots 15 miles
  • Overcast at 5,600' AGL
Temperatures Readings
Current -3°C / 27°F
Dewpoint -7°C / 19°F
Humidity 74%
Altimeter 30.18" Hg
Pressure 1022.9 hPa
Elevation 114
METAR CYOW 190100Z 14007KT 15SM OVC056 M03/M07 A3018 RMK SC8 SLP229
Observed Flight Rules
Nov-19 @ 01:00 UTC
(17 minutes ago)
VFR
Wind Visibility
140° at 7 knots 15 miles
Clouds
  • Overcast at 5,600' AGL
Temperature Dewpoint
-3°C / 27°F -7°C / 19°F
Humidity Altimeter Pressure
74% 30.18" Hg 1022.9 hPa